Time;durP1;ratioP1;P1;durP2;ratioP2;P2;SDS_P1;SDS_P2;PMS_P1;PMS_P2;Temp;Humidity;BMP_temperature;BMP_pressure;BME280_temperature;BME280_humidity;BME280_pressure;Samples;Min_cycle;Max_cycle;Signal;HPM_P1;HPM_P2
2023/09/09 00:03:54;;;;;;;18.20;11.60;;;;;;;17.49;73.88;99491.38;232825;215;146021;-61
2023/09/09 00:08:59;;;;;;;17.40;12.70;;;;;;;17.44;73.92;99492.19;232771;215;138766;-62
2023/09/09 00:14:04;;;;;;;15.90;10.70;;;;;;;17.35;74.11;99497.55;232740;215;141020;-60
2023/09/09 00:19:07;;;;;;;15.60;10.50;;;;;;;17.29;74.18;99489.98;232834;215;145648;-62
2023/09/09 00:24:12;;;;;;;19.00;11.60;;;;;;;17.28;74.26;99486.69;232650;214;138844;-60
2023/09/09 00:29:16;;;;;;;18.80;11.80;;;;;;;17.27;74.06;99484.29;232921;214;138131;-62
2023/09/09 00:34:22;;;;;;;16.10;11.00;;;;;;;17.24;74.09;99483.77;232739;215;145829;-63
2023/09/09 00:39:28;;;;;;;18.40;11.40;;;;;;;17.18;74.13;99478.33;232801;215;139013;-67
2023/09/09 00:44:33;;;;;;;17.80;11.40;;;;;;;17.09;74.13;99480.51;234706;215;137743;-66
2023/09/09 00:49:36;;;;;;;16.00;10.50;;;;;;;17.01;74.23;99480.67;234604;215;146043;-70
2023/09/09 00:57:44;;;;;;;18.90;11.70;;;;;;;16.96;74.35;99479.29;231992;219;733647;-60
2023/09/09 01:02:49;;;;;;;14.70;10.70;;;;;;;16.97;74.32;99479.70;232858;215;138425;-59
2023/09/09 01:07:55;;;;;;;16.40;11.10;;;;;;;16.97;74.21;99479.02;232822;215;143795;-60
2023/09/09 01:13:01;;;;;;;16.60;10.80;;;;;;;16.93;74.12;99478.98;232687;214;140391;-60
2023/09/09 01:18:06;;;;;;;;;;;;;;;16.86;74.13;99479.36;232606;214;138988;-60
2023/09/09 01:23:09;;;;;;;15.30;10.90;;;;;;;16.76;74.38;99481.20;232846;214;144865;-60
2023/09/09 01:28:13;;;;;;;15.40;10.80;;;;;;;16.70;74.44;99484.20;232690;214;140223;-60
2023/09/09 01:33:18;;;;;;;17.50;10.40;;;;;;;16.65;74.65;99489.60;232734;214;138768;-60
2023/09/09 01:38:25;;;;;;;16.70;10.70;;;;;;;16.65;74.64;99489.77;232652;214;144093;-60
2023/09/09 01:43:30;;;;;;;15.10;10.50;;;;;;;16.66;74.59;99488.86;232532;214;138859;-64
2023/09/09 01:48:35;;;;;;;16.70;10.70;;;;;;;16.63;74.61;99485.81;232681;213;138858;-63
2023/09/09 01:53:40;;;;;;;18.10;10.80;;;;;;;16.57;74.78;99477.73;232809;214;145833;-62
2023/09/09 01:58:43;;;;;;;17.50;11.20;;;;;;;16.51;74.84;99476.09;232682;214;138682;-62
2023/09/09 02:03:49;;;;;;;13.30;9.70;;;;;;;16.45;75.00;99471.91;232721;215;138437;-62
2023/09/09 02:08:54;;;;;;;14.00;9.60;;;;;;;16.41;75.26;99477.36;232700;214;145859;-62
2023/09/09 02:14:00;;;;;;;13.70;9.70;;;;;;;16.39;75.31;99483.48;232765;215;138790;-62
2023/09/09 02:19:07;;;;;;;15.10;10.60;;;;;;;16.41;75.30;99483.10;232778;214;137342;-64
2023/09/09 02:24:12;;;;;;;16.60;10.90;;;;;;;16.40;75.23;99487.35;232820;214;146619;-64
2023/09/09 02:29:15;;;;;;;17.10;11.40;;;;;;;16.34;75.33;99487.61;235014;215;140273;-64
2023/09/09 02:34:19;;;;;;;20.00;11.40;;;;;;;16.32;75.53;99488.82;234820;215;137851;-66
2023/09/09 02:39:22;;;;;;;20.70;10.70;;;;;;;16.27;75.54;99492.05;234699;215;145843;-60
2023/09/09 02:44:25;;;;;;;15.90;10.30;;;;;;;16.22;75.46;99485.64;234630;215;139115;-60
2023/09/09 02:49:29;;;;;;;16.50;10.80;;;;;;;16.22;75.49;99482.08;234709;215;137767;-62
2023/09/09 02:57:49;;;;;;;16.30;10.50;;;;;;;16.27;75.56;99491.34;231442;226;735197;-60
2023/09/09 03:02:58;;;;;;;17.10;10.50;;;;;;;16.25;75.71;99488.00;232893;217;140088;-61
2023/09/09 03:08:06;;;;;;;19.00;11.30;;;;;;;16.24;75.48;99489.84;232823;215;144824;-61
2023/09/09 03:13:11;;;;;;;15.10;10.30;;;;;;;16.19;75.55;99489.16;232783;216;140342;-61
2023/09/09 03:18:17;;;;;;;;;;;;;;;16.13;75.58;99490.90;232875;216;140555;-60
2023/09/09 03:23:24;;;;;;;17.70;9.90;;;;;;;16.11;75.65;99487.77;233015;216;144137;-60
2023/09/09 03:28:29;;;;;;;18.80;10.70;;;;;;;16.08;75.30;99495.89;232796;216;139040;-60
2023/09/09 03:33:34;;;;;;;19.10;10.70;;;;;;;16.02;75.13;99494.03;232860;216;137499;-62
2023/09/09 03:38:40;;;;;;;17.90;11.30;;;;;;;15.96;75.15;99496.30;232847;216;143758;-60
2023/09/09 03:43:48;;;;;;;15.50;10.30;;;;;;;15.88;74.93;99499.58;232819;216;139222;-62
2023/09/09 03:48:53;;;;;;;17.40;10.80;;;;;;;15.78;75.05;99495.33;232886;216;138519;-60
2023/09/09 03:53:58;;;;;;;;;;;;;;;15.70;75.14;99497.90;232949;216;148268;-59
2023/09/09 03:59:03;;;;;;;15.30;10.50;;;;;;;15.68;75.31;99499.34;232927;216;139630;-63
2023/09/09 04:04:07;;;;;;;15.10;11.00;;;;;;;15.67;75.30;99504.41;232853;216;138012;-62
2023/09/09 04:09:20;;;;;;;17.40;10.50;;;;;;;15.66;75.37;99502.54;232870;217;146561;-62
2023/09/09 04:14:26;;;;;;;16.50;11.50;;;;;;;15.60;75.42;99500.93;232890;216;138878;-63
2023/09/09 04:19:31;;;;;;;;;;;;;;;15.55;75.61;99506.70;232940;216;138075;-60
2023/09/09 04:24:36;;;;;;;16.80;11.00;;;;;;;15.47;75.90;99506.92;232960;216;146418;-59
2023/09/09 04:29:43;;;;;;;13.30;10.20;;;;;;;15.42;76.23;99510.20;233006;216;138998;-61
2023/09/09 04:34:46;;;;;;;13.00;10.70;;;;;;;15.43;76.46;99509.63;232938;216;137747;-61
2023/09/09 04:39:54;;;;;;;15.40;11.10;;;;;;;15.46;76.70;99511.19;232907;216;145476;-64
2023/09/09 04:45:00;;;;;;;14.20;11.10;;;;;;;15.54;76.93;99511.27;232941;216;138872;-61
2023/09/09 04:50:06;;;;;;;16.20;10.90;;;;;;;15.58;76.96;99512.73;232879;215;137219;-61
2023/09/09 04:55:10;;;;;;;17.40;10.90;;;;;;;15.60;77.04;99517.03;232893;216;145649;-62
2023/09/09 05:00:17;;;;;;;15.70;11.00;;;;;;;15.61;77.32;99516.98;232957;216;139464;-61
2023/09/09 05:05:20;;;;;;;15.20;10.20;;;;;;;15.65;77.59;99513.16;232890;216;139825;-63
2023/09/09 05:10:29;;;;;;;164.00;123.70;;;;;;;15.72;77.98;99514.27;232849;216;145856;-59
2023/09/09 05:15:35;;;;;;;49.90;37.80;;;;;;;15.88;78.03;99517.10;232830;216;139630;-59
2023/09/09 05:20:45;;;;;;;40.60;29.90;;;;;;;16.04;78.13;99516.59;232946;216;140092;-57
2023/09/09 05:25:52;;;;;;;120.10;103.70;;;;;;;16.22;77.94;99518.99;232976;216;145830;-58
2023/09/09 05:30:57;;;;;;;;;;;;;;;16.33;77.78;99518.67;232796;216;139362;-58
2023/09/09 05:36:03;;;;;;;85.90;63.20;;;;;;;16.52;77.69;99520.96;233168;216;131221;-60
2023/09/09 05:41:07;;;;;;;18.40;12.40;;;;;;;16.78;77.52;99522.34;232812;215;146935;-61
2023/09/09 05:46:14;;;;;;;18.00;11.90;;;;;;;16.99;77.01;99522.42;232754;215;138705;-60
2023/09/09 05:51:21;;;;;;;88.10;65.80;;;;;;;17.17;76.56;99524.91;232710;215;137167;-63
2023/09/09 05:56:25;;;;;;;18.60;13.20;;;;;;;17.29;76.39;99527.88;232797;215;145400;-58
2023/09/09 06:01:35;;;;;;;19.20;14.60;;;;;;;17.42;76.32;99531.08;232772;215;139617;-59
2023/09/09 06:06:49;;;;;;;22.20;16.40;;;;;;;17.61;76.32;99530.91;232785;215;138609;-60
2023/09/09 06:11:56;;;;;;;23.40;16.50;;;;;;;17.79;76.18;99531.95;232901;215;148374;-59
2023/09/09 06:17:03;;;;;;;23.40;16.80;;;;;;;18.22;75.60;99537.69;232738;215;138577;-59
2023/09/09 06:22:08;;;;;;;24.80;17.40;;;;;;;18.56;74.70;99547.80;232860;215;138641;-63
2023/09/09 06:27:11;;;;;;;22.90;17.00;;;;;;;18.79;73.90;99554.28;232800;215;146220;-61
2023/09/09 06:32:17;;;;;;;22.40;16.50;;;;;;;18.89;73.58;99561.00;232763;215;139887;-60
2023/09/09 06:37:23;;;;;;;201.30;158.50;;;;;;;19.02;73.18;99560.77;232901;215;138337;-60
2023/09/09 06:42:28;;;;;;;26.00;19.00;;;;;;;19.10;73.26;99565.38;232885;215;146368;-61
2023/09/09 06:47:35;;;;;;;31.20;23.30;;;;;;;19.20;73.40;99569.75;232823;215;140509;-59
2023/09/09 06:52:39;;;;;;;25.20;18.50;;;;;;;19.29;73.20;99572.52;232803;215;138212;-62
2023/09/09 06:57:44;;;;;;;25.10;17.90;;;;;;;19.26;73.48;99573.67;232820;215;145815;-61
2023/09/09 07:02:47;;;;;;;22.30;16.20;;;;;;;19.30;73.70;99578.15;232728;215;138828;-64
2023/09/09 07:07:53;;;;;;;27.00;17.70;;;;;;;19.36;74.01;99580.76;232758;215;137085;-63
2023/09/09 07:12:57;;;;;;;22.00;16.50;;;;;;;19.35;74.45;99582.59;232732;215;147423;-61
2023/09/09 07:18:03;;;;;;;23.70;16.10;;;;;;;19.45;74.04;99585.30;232785;215;138917;-59
2023/09/09 07:23:06;;;;;;;21.80;16.20;;;;;;;19.69;73.99;99583.02;232710;215;137468;-63
2023/09/09 07:28:11;;;;;;;102.60;91.70;;;;;;;19.84;74.15;99578.02;232687;215;147584;-61
2023/09/09 07:33:19;;;;;;;55.80;45.20;;;;;;;19.92;73.96;99580.31;232729;215;138930;-64
2023/09/09 09:45:30;;;;;;;18.50;10.30;;;;;;;23.34;64.35;99529.07;231914;220;697830;-66
2023/09/09 09:50:35;;;;;;;20.10;10.80;;;;;;;23.46;63.04;99531.80;232844;214;137261;-63
2023/09/09 09:55:39;;;;;;;;;;;;;;;23.66;62.14;99527.23;232872;215;143724;-63
2023/09/09 10:00:42;;;;;;;15.20;9.90;;;;;;;23.92;60.98;99531.36;233022;216;138720;-64
2023/09/09 10:05:49;;;;;;;16.70;9.10;;;;;;;24.23;59.67;99528.09;232866;216;137586;-64
2023/09/09 10:11:07;;;;;;;191.60;148.60;;;;;;;24.47;57.69;99528.72;232897;216;143971;-63
2023/09/09 10:16:13;;;;;;;15.50;10.30;;;;;;;24.66;56.92;99526.23;232826;216;140788;-63
2023/09/09 10:21:20;;;;;;;12.70;8.90;;;;;;;24.85;56.07;99524.38;232948;215;136512;-62
2023/09/09 10:26:45;;;;;;;20.80;8.00;;;;;;;25.04;55.40;99516.08;232904;212;144393;-64
2023/09/09 10:31:52;;;;;;;12.60;8.30;;;;;;;25.21;55.86;99507.52;232750;216;138867;-63
2023/09/09 10:36:59;;;;;;;13.30;8.10;;;;;;;25.35;54.82;99504.27;232947;215;137704;-62
2023/09/09 10:42:07;;;;;;;11.30;7.90;;;;;;;25.47;54.32;99499.61;232782;216;146782;-63
2023/09/09 10:47:10;;;;;;;9.30;7.20;;;;;;;25.58;53.77;99495.79;232887;216;138784;-62
2023/09/09 10:52:32;;;;;;;12.70;7.10;;;;;;;25.66;52.42;99490.66;232880;216;139019;-59
2023/09/09 10:57:36;;;;;;;10.20;7.70;;;;;;;25.77;52.70;99496.62;232779;215;146426;-62
2023/09/09 11:02:48;;;;;;;14.80;8.40;;;;;;;25.95;53.07;99497.08;232692;215;140616;-61
2023/09/09 11:07:53;;;;;;;12.70;8.50;;;;;;;26.02;52.36;99495.56;232785;215;136858;-63
2023/09/09 11:12:58;;;;;;;9.70;8.20;;;;;;;26.09;52.95;99488.34;232837;215;145791;-62
2023/09/09 11:18:04;;;;;;;12.80;8.80;;;;;;;26.17;52.47;99486.09;232696;215;139003;-61
2023/09/09 11:23:07;;;;;;;10.70;8.50;;;;;;;26.23;52.62;99481.89;232810;215;136652;-61
2023/09/09 11:28:13;;;;;;;12.60;7.60;;;;;;;26.25;52.01;99478.02;232713;215;148511;-61
2023/09/09 11:33:24;;;;;;;18.10;14.00;;;;;;;26.30;52.09;99471.77;232763;215;138881;-62
2023/09/09 11:38:27;;;;;;;12.00;9.20;;;;;;;26.39;52.17;99467.07;232793;214;137360;-62
2023/09/09 11:43:32;;;;;;;11.90;8.60;;;;;;;26.49;52.60;99466.01;232770;215;146495;-64
2023/09/09 11:48:39;;;;;;;66.40;55.50;;;;;;;26.59;52.22;99466.74;232641;215;140158;-61
2023/09/09 11:53:45;;;;;;;9.80;8.40;;;;;;;26.65;51.52;99463.92;232705;215;138043;-62
2023/09/09 11:58:50;;;;;;;12.20;8.60;;;;;;;26.74;51.21;99454.64;232803;215;145790;-62
2023/09/09 12:04:06;;;;;;;13.00;8.50;;;;;;;26.85;50.53;99448.66;232820;215;138937;-61
2023/09/09 12:09:10;;;;;;;11.40;7.50;;;;;;;26.96;50.99;99447.90;232812;214;137486;-62
2023/09/09 12:14:15;;;;;;;10.10;7.10;;;;;;;26.99;51.07;99449.88;232761;215;145522;-61
2023/09/09 12:19:18;;;;;;;14.90;11.40;;;;;;;27.03;50.19;99447.02;232829;215;140304;-62
2023/09/09 12:24:23;;;;;;;9.60;7.30;;;;;;;27.11;50.44;99443.64;232811;215;137412;-61
2023/09/09 12:29:29;;;;;;;41.40;32.30;;;;;;;27.15;50.59;99440.40;232814;215;145884;-62
2023/09/09 12:34:43;;;;;;;16.20;10.70;;;;;;;27.18;50.88;99436.60;232739;214;139234;-60
2023/09/09 12:40:03;;;;;;;16.20;8.80;;;;;;;27.21;50.20;99429.99;232767;215;136908;-63
2023/09/09 12:45:10;;;;;;;191.30;143.50;;;;;;;27.23;49.67;99426.44;232764;215;146915;-62
2023/09/09 12:50:14;;;;;;;49.80;43.10;;;;;;;27.23;48.75;99427.45;232758;215;138690;-61
2023/09/09 12:55:22;;;;;;;16.30;12.40;;;;;;;27.20;48.83;99428.30;232862;215;137536;-61
2023/09/09 13:00:28;;;;;;;10.40;7.90;;;;;;;27.15;49.02;99432.45;232774;214;145585;-62
2023/09/09 13:05:33;;;;;;;8.90;6.30;;;;;;;27.09;48.92;99434.16;232727;215;138884;-62
2023/09/09 13:10:38;;;;;;;7.40;5.90;;;;;;;27.15;48.83;99436.09;232730;215;138362;-63
2023/09/09 13:15:44;;;;;;;10.60;6.80;;;;;;;27.23;48.72;99434.06;233084;215;146889;-61
2023/09/09 13:20:49;;;;;;;8.70;6.60;;;;;;;27.37;48.23;99430.52;232904;215;141106;-62
2023/09/09 13:25:53;;;;;;;12.90;7.00;;;;;;;27.55;48.18;99426.00;232962;216;138527;-62
2023/09/09 13:30:58;;;;;;;10.60;6.50;;;;;;;27.69;47.57;99417.40;232766;216;146135;-61
2023/09/09 13:36:04;;;;;;;11.20;6.60;;;;;;;27.79;47.31;99416.13;232825;216;139477;-61
2023/09/09 13:41:08;;;;;;;8.60;6.60;;;;;;;27.86;46.72;99410.05;232896;216;137017;-60
2023/09/09 13:46:12;;;;;;;12.70;6.80;;;;;;;27.86;46.47;99409.42;232883;216;145723;-61
2023/09/09 13:51:18;;;;;;;9.10;6.70;;;;;;;27.81;46.47;99412.80;232806;216;138790;-66
2023/09/09 13:56:23;;;;;;;;;;;;;;;27.72;46.47;99410.75;232895;216;137827;-67
2023/09/09 14:01:27;;;;;;;8.00;6.50;;;;;;;27.67;46.80;99409.18;233080;216;147156;-66
2023/09/09 14:06:32;;;;;;;13.80;7.10;;;;;;;27.51;46.81;99404.33;232763;216;138677;-67
2023/09/09 14:11:36;;;;;;;8.90;6.90;;;;;;;27.28;47.03;99403.04;232813;216;138453;-67
2023/09/09 14:16:43;;;;;;;9.40;6.00;;;;;;;27.03;47.42;99408.44;232774;216;147816;-66
2023/09/09 14:21:50;;;;;;;8.10;6.20;;;;;;;26.83;47.85;99403.99;232809;216;138763;-66
2023/09/09 14:26:56;;;;;;;10.90;6.50;;;;;;;26.61;48.34;99398.45;232830;216;137734;-65
2023/09/09 14:32:03;;;;;;;9.60;7.20;;;;;;;26.47;48.75;99397.90;232985;216;145776;-60
2023/09/09 14:37:07;;;;;;;8.90;6.60;;;;;;;26.38;49.12;99404.30;232990;216;138955;-62
2023/09/09 14:42:11;;;;;;;9.80;6.90;;;;;;;26.23;49.63;99402.48;232828;216;138160;-62
2023/09/09 14:47:16;;;;;;;8.80;6.80;;;;;;;26.10;50.33;99405.73;232776;216;145748;-60
2023/09/09 14:52:21;;;;;;;12.30;9.20;;;;;;;26.01;50.91;99400.52;232773;216;139068;-61
2023/09/09 14:57:32;;;;;;;11.90;7.30;;;;;;;25.85;51.20;99394.29;232832;216;137372;-61
2023/09/09 15:02:37;;;;;;;9.90;6.20;;;;;;;25.75;51.68;99396.05;232782;216;145528;-62
2023/09/09 15:07:42;;;;;;;9.30;6.40;;;;;;;25.65;52.12;99389.86;232910;216;139772;-62
2023/09/09 15:12:58;;;;;;;12.20;8.30;;;;;;;25.58;51.81;99390.20;232845;216;136644;-61
2023/09/09 15:18:07;;;;;;;37.00;31.80;;;;;;;25.54;51.96;99387.65;232888;216;147308;-62
2023/09/09 15:23:12;;;;;;;15.70;11.80;;;;;;;25.47;52.41;99381.36;232835;215;138911;-62
2023/09/09 15:28:18;;;;;;;15.50;10.10;;;;;;;25.39;52.84;99385.61;232795;215;138522;-61
2023/09/09 15:33:24;;;;;;;281.40;229.20;;;;;;;25.32;53.09;99386.04;232882;216;147385;-61
2023/09/09 15:38:29;;;;;;;47.80;38.80;;;;;;;25.25;53.43;99383.09;232877;215;138778;-61
2023/09/09 15:43:38;;;;;;;56.10;47.70;;;;;;;25.16;53.40;99377.43;233025;214;138210;-59
2023/09/09 15:48:42;;;;;;;21.20;16.80;;;;;;;25.09;53.62;99379.49;232898;216;145875;-61
2023/09/09 15:53:48;;;;;;;27.00;21.10;;;;;;;25.00;54.10;99378.33;232789;216;139660;-61
2023/09/09 15:58:53;;;;;;;277.80;242.70;;;;;;;24.92;54.36;99379.97;232853;216;137696;-60
2023/09/09 16:03:58;;;;;;;39.60;32.20;;;;;;;24.85;54.64;99381.13;232924;215;145753;-61
2023/09/09 16:09:03;;;;;;;;;;;;;;;24.75;55.11;99380.37;232915;215;140821;-59
2023/09/09 16:14:10;;;;;;;10.90;9.70;;;;;;;24.62;55.54;99383.83;233072;216;131462;-59
2023/09/09 16:19:14;;;;;;;11.50;9.70;;;;;;;24.51;55.83;99388.66;232927;216;145492;-60
2023/09/09 16:24:18;;;;;;;18.10;13.10;;;;;;;24.40;56.53;99391.45;232895;216;138770;-57
2023/09/09 16:29:24;;;;;;;197.20;175.80;;;;;;;24.28;56.53;99392.23;232831;216;137096;-60
2023/09/09 16:34:30;;;;;;;27.00;21.10;;;;;;;24.20;57.01;99394.89;232734;216;145808;-59
2023/09/09 16:39:36;;;;;;;159.90;125.50;;;;;;;24.12;57.28;99391.96;232744;215;140206;-60
2023/09/09 16:44:42;;;;;;;18.10;14.90;;;;;;;24.03;57.42;99392.41;232751;216;137783;-60
2023/09/09 16:49:48;;;;;;;15.00;11.30;;;;;;;23.92;57.50;99392.67;232921;216;145822;-59
2023/09/09 16:54:54;;;;;;;11.40;8.50;;;;;;;23.82;57.82;99393.57;232845;216;140989;-61
2023/09/09 19:05:32;;;;;;;26.20;19.90;;;;;;;21.83;65.25;99464.53;231553;223;696780;-62
2023/09/09 19:10:39;;;;;;;29.80;20.60;;;;;;;21.73;65.53;99463.06;232238;219;137456;-63
2023/09/09 19:15:43;;;;;;;30.30;20.60;;;;;;;21.66;65.75;99460.88;232611;214;144924;-63
2023/09/09 19:20:53;;;;;;;28.00;19.20;;;;;;;21.57;66.01;99466.67;232723;214;138789;-62
2023/09/09 19:25:59;;;;;;;23.90;18.40;;;;;;;21.50;66.22;99458.89;232721;214;138054;-61
2023/09/09 19:31:07;;;;;;;33.80;18.50;;;;;;;21.48;66.48;99463.11;232622;214;144058;-62
2023/09/09 19:36:12;;;;;;;25.50;19.50;;;;;;;21.47;66.53;99466.27;232726;215;138946;-63
2023/09/09 19:41:17;;;;;;;27.70;19.60;;;;;;;21.42;66.77;99466.00;232781;214;137743;-62
2023/09/09 19:46:22;;;;;;;27.90;19.90;;;;;;;21.36;66.99;99468.44;232852;214;144826;-62
2023/09/09 19:51:29;;;;;;;29.50;20.40;;;;;;;21.29;67.09;99462.04;232754;215;140269;-62
2023/09/09 19:56:35;;;;;;;30.60;21.70;;;;;;;21.23;67.27;99459.91;232759;214;138343;-61
2023/09/09 20:01:42;;;;;;;27.60;21.50;;;;;;;21.15;67.56;99459.89;232674;214;148181;-60
2023/09/09 20:06:50;;;;;;;25.80;18.30;;;;;;;21.05;68.01;99463.39;232701;214;139790;-62
2023/09/09 20:11:59;;;;;;;30.30;20.10;;;;;;;20.98;68.23;99465.10;232875;215;138348;-61
2023/09/09 20:17:04;;;;;;;27.90;20.20;;;;;;;20.96;68.27;99464.81;232790;215;145401;-58
2023/09/09 20:22:09;;;;;;;27.00;20.10;;;;;;;20.94;68.34;99461.00;232757;215;138799;-60
2023/09/09 20:27:19;;;;;;;33.20;21.00;;;;;;;20.88;68.31;99455.29;232915;214;138172;-61
2023/09/09 20:32:25;;;;;;;26.60;19.70;;;;;;;20.78;68.34;99455.38;232944;215;145481;-60
2023/09/09 20:37:30;;;;;;;30.10;20.10;;;;;;;20.68;68.88;99452.80;232796;215;139714;-61
2023/09/09 20:42:36;;;;;;;25.50;18.70;;;;;;;20.57;69.24;99453.08;232703;215;139349;-60
2023/09/09 20:47:54;;;;;;;23.70;17.80;;;;;;;20.47;69.49;99453.30;232703;215;145954;-61
2023/09/09 20:53:03;;;;;;;25.70;17.50;;;;;;;20.40;69.92;99454.19;232650;214;139076;-62
2023/09/09 20:58:07;;;;;;;26.00;18.40;;;;;;;20.36;70.10;99451.90;232712;214;162135;-59
2023/09/09 21:03:11;;;;;;;24.60;18.30;;;;;;;20.35;70.36;99449.27;232929;215;145817;-60
2023/09/09 21:08:16;;;;;;;25.10;17.40;;;;;;;20.32;70.48;99445.23;232770;215;138861;-60
2023/09/09 21:13:21;;;;;;;23.60;17.40;;;;;;;20.25;70.69;99441.71;232733;215;137228;-61
2023/09/09 21:18:34;;;;;;;27.20;16.50;;;;;;;20.17;70.73;99439.87;232868;215;146172;-61
2023/09/09 21:23:40;;;;;;;23.00;16.90;;;;;;;20.06;70.94;99435.79;232793;215;140899;-60
2023/09/09 21:28:44;;;;;;;20.60;15.00;;;;;;;19.96;71.10;99432.27;232800;215;137090;-60
2023/09/09 21:33:48;;;;;;;23.80;15.80;;;;;;;19.89;71.25;99437.59;232728;215;147756;-61
2023/09/09 21:38:53;;;;;;;23.90;16.20;;;;;;;19.85;71.45;99430.64;232778;215;139406;-61
2023/09/09 21:43:57;;;;;;;23.20;14.90;;;;;;;19.80;71.61;99433.94;232739;215;137761;-61
2023/09/09 21:49:05;;;;;;;24.50;16.90;;;;;;;19.76;71.73;99429.52;232707;214;146144;-61
2023/09/09 21:54:08;;;;;;;21.00;15.70;;;;;;;19.69;71.89;99430.34;232672;215;138604;-61
2023/09/09 21:59:14;;;;;;;20.30;16.50;;;;;;;19.62;71.95;99427.02;232755;215;138212;-61
2023/09/09 22:04:20;;;;;;;21.70;15.50;;;;;;;19.53;72.21;99425.66;232719;215;147496;-62
2023/09/09 22:09:25;;;;;;;20.70;15.50;;;;;;;19.47;72.44;99428.02;232841;215;141874;-60
2023/09/09 22:14:29;;;;;;;21.10;16.30;;;;;;;19.47;72.57;99419.55;232803;215;138250;-61
2023/09/09 22:19:34;;;;;;;22.70;17.00;;;;;;;19.48;72.56;99423.75;232663;215;147069;-60
2023/09/09 22:24:38;;;;;;;20.80;16.70;;;;;;;19.45;72.64;99417.95;232629;215;138898;-59
2023/09/09 22:29:43;;;;;;;22.80;16.40;;;;;;;19.39;72.91;99415.46;232680;215;138004;-61
2023/09/09 22:34:56;;;;;;;24.40;17.00;;;;;;;19.33;73.16;99418.84;232766;214;147261;-60
2023/09/09 22:40:04;;;;;;;21.10;15.40;;;;;;;19.26;73.09;99418.05;232775;215;138880;-62
2023/09/09 22:45:07;;;;;;;21.40;14.40;;;;;;;19.21;73.37;99416.93;232841;215;139594;-61
2023/09/09 22:50:12;;;;;;;21.30;16.00;;;;;;;19.20;73.49;99410.91;232699;215;145838;-59
2023/09/09 22:55:20;;;;;;;22.40;16.20;;;;;;;19.20;73.47;99415.96;232697;215;139749;-60
2023/09/09 23:00:25;;;;;;;;;;;;;;;19.14;73.40;99418.58;232646;215;137980;-59
2023/09/09 23:05:31;;;;;;;24.20;17.60;;;;;;;19.06;73.51;99420.44;232786;215;145881;-61
2023/09/09 23:10:36;;;;;;;24.40;16.90;;;;;;;18.97;73.37;99419.45;232702;214;139902;-59
2023/09/09 23:15:41;;;;;;;22.10;15.40;;;;;;;18.87;73.51;99417.34;232700;215;137359;-60
2023/09/09 23:20:45;;;;;;;19.90;15.20;;;;;;;18.80;73.64;99417.20;232819;215;146866;-60
2023/09/09 23:25:54;;;;;;;22.10;16.10;;;;;;;18.80;73.69;99418.14;232699;215;138742;-59
2023/09/09 23:31:03;;;;;;;23.30;16.70;;;;;;;18.79;73.70;99413.20;232699;214;138330;-58
2023/09/09 23:36:07;;;;;;;21.10;15.70;;;;;;;18.75;73.57;99418.21;232622;214;146713;-61
2023/09/09 23:42:21;;;;;;;20.50;15.70;;;;;;;18.70;73.60;99419.73;231379;225;735686;-58
2023/09/09 23:47:26;;;;;;;20.30;15.60;;;;;;;18.62;73.61;99415.02;232282;220;137606;-61
2023/09/09 23:52:31;;;;;;;21.90;14.60;;;;;;;18.53;73.71;99413.66;232310;218;145041;-60
2023/09/09 23:57:39;;;;;;;18.10;14.50;;;;;;;18.45;73.84;99413.10;232938;216;139745;-61
